sensor_id;sensor_type;location;lat;lon;timestamp;pressure;altitude;pressure_sealevel;temperature;humidity
11621;BME280;5866;49.094;11.900;2022-12-18T00:01:16;97397.66;;;-3.08;100.00
11621;BME280;5866;49.094;11.900;2022-12-18T00:03:44;97394.25;;;-3.10;100.00
11621;BME280;5866;49.094;11.900;2022-12-18T00:06:12;97387.78;;;-3.23;100.00
11621;BME280;5866;49.094;11.900;2022-12-18T00:08:40;97398.16;;;-3.23;100.00
11621;BME280;5866;49.094;11.900;2022-12-18T00:11:11;97407.25;;;-3.36;100.00
11621;BME280;5866;49.094;11.900;2022-12-18T00:13:39;97395.25;;;-2.88;100.00
11621;BME280;5866;49.094;11.900;2022-12-18T00:16:09;97393.38;;;-3.09;100.00
11621;BME280;5866;49.094;11.900;2022-12-18T00:18:39;97400.72;;;-2.72;100.00
11621;BME280;5866;49.094;11.900;2022-12-18T00:21:09;97400.09;;;-2.54;100.00
11621;BME280;5866;49.094;11.900;2022-12-18T00:23:38;97413.63;;;-2.21;100.00
11621;BME280;5866;49.094;11.900;2022-12-18T00:26:10;97411.78;;;-2.43;100.00
11621;BME280;5866;49.094;11.900;2022-12-18T00:28:38;97406.75;;;-2.22;100.00
11621;BME280;5866;49.094;11.900;2022-12-18T00:31:08;97418.50;;;-2.60;100.00
11621;BME280;5866;49.094;11.900;2022-12-18T00:33:38;97412.59;;;-2.41;100.00
11621;BME280;5866;49.094;11.900;2022-12-18T00:36:10;97427.94;;;-2.58;100.00
11621;BME280;5866;49.094;11.900;2022-12-18T00:38:38;97430.16;;;-2.24;100.00
11621;BME280;5866;49.094;11.900;2022-12-18T00:41:07;97442.00;;;-3.15;100.00
11621;BME280;5866;49.094;11.900;2022-12-18T00:43:35;97442.94;;;-3.18;100.00
11621;BME280;5866;49.094;11.900;2022-12-18T00:46:04;97448.00;;;-3.40;100.00
11621;BME280;5866;49.094;11.900;2022-12-18T00:48:33;97454.19;;;-3.17;100.00
11621;BME280;5866;49.094;11.900;2022-12-18T00:51:02;97447.25;;;-3.17;100.00
11621;BME280;5866;49.094;11.900;2022-12-18T00:53:30;97439.09;;;-2.80;100.00
11621;BME280;5866;49.094;11.900;2022-12-18T00:55:57;97438.44;;;-2.61;100.00
11621;BME280;5866;49.094;11.900;2022-12-18T00:58:25;97421.53;;;-2.48;100.00
11621;BME280;5866;49.094;11.900;2022-12-18T01:00:53;97428.53;;;-2.50;100.00
11621;BME280;5866;49.094;11.900;2022-12-18T01:03:22;97410.78;;;-2.38;100.00
11621;BME280;5866;49.094;11.900;2022-12-18T01:05:49;97418.81;;;-2.21;100.00
11621;BME280;5866;49.094;11.900;2022-12-18T01:08:18;97413.00;;;-2.28;100.00
11621;BME280;5866;49.094;11.900;2022-12-18T01:10:45;97421.09;;;-2.12;100.00
11621;BME280;5866;49.094;11.900;2022-12-18T01:13:13;97424.44;;;-2.57;100.00
11621;BME280;5866;49.094;11.900;2022-12-18T01:15:47;97424.88;;;-2.95;100.00
11621;BME280;5866;49.094;11.900;2022-12-18T01:18:15;97439.97;;;-3.32;100.00
11621;BME280;5866;49.094;11.900;2022-12-18T01:20:43;97435.84;;;-3.39;100.00
11621;BME280;5866;49.094;11.900;2022-12-18T01:23:10;97435.44;;;-3.26;100.00
11621;BME280;5866;49.094;11.900;2022-12-18T01:25:39;97439.25;;;-3.37;100.00
11621;BME280;5866;49.094;11.900;2022-12-18T01:28:06;97433.38;;;-3.16;100.00
11621;BME280;5866;49.094;11.900;2022-12-18T01:30:34;97434.38;;;-3.46;100.00
11621;BME280;5866;49.094;11.900;2022-12-18T01:33:03;97443.03;;;-2.69;100.00
11621;BME280;5866;49.094;11.900;2022-12-18T01:35:31;97434.19;;;-2.15;100.00
11621;BME280;5866;49.094;11.900;2022-12-18T01:37:58;97445.97;;;-2.05;100.00
11621;BME280;5866;49.094;11.900;2022-12-18T01:40:26;97447.72;;;-1.83;100.00
11621;BME280;5866;49.094;11.900;2022-12-18T01:42:55;97450.84;;;-2.21;100.00
11621;BME280;5866;49.094;11.900;2022-12-18T01:45:27;97449.59;;;-2.34;100.00
11621;BME280;5866;49.094;11.900;2022-12-18T01:47:57;97452.50;;;-2.18;100.00
11621;BME280;5866;49.094;11.900;2022-12-18T01:50:29;97466.75;;;-3.04;100.00
11621;BME280;5866;49.094;11.900;2022-12-18T01:53:00;97459.97;;;-2.34;100.00
11621;BME280;5866;49.094;11.900;2022-12-18T01:55:32;97463.88;;;-2.46;100.00
11621;BME280;5866;49.094;11.900;2022-12-18T01:58:04;97460.75;;;-2.30;100.00
11621;BME280;5866;49.094;11.900;2022-12-18T02:00:32;97464.75;;;-2.47;100.00
11621;BME280;5866;49.094;11.900;2022-12-18T02:02:59;97461.56;;;-2.30;100.00
11621;BME280;5866;49.094;11.900;2022-12-18T02:05:36;97469.88;;;-2.68;100.00
11621;BME280;5866;49.094;11.900;2022-12-18T02:08:13;97471.03;;;-2.52;100.00
11621;BME280;5866;49.094;11.900;2022-12-18T02:10:48;97471.28;;;-2.35;100.00
11621;BME280;5866;49.094;11.900;2022-12-18T02:13:26;97480.63;;;-2.29;100.00
11621;BME280;5866;49.094;11.900;2022-12-18T02:16:02;97475.06;;;-2.68;100.00
11621;BME280;5866;49.094;11.900;2022-12-18T02:18:36;97480.97;;;-2.65;100.00
11621;BME280;5866;49.094;11.900;2022-12-18T02:21:13;97471.53;;;-2.43;100.00
11621;BME280;5866;49.094;11.900;2022-12-18T02:23:52;97472.19;;;-2.61;100.00
11621;BME280;5866;49.094;11.900;2022-12-18T02:26:27;97469.16;;;-2.49;100.00
11621;BME280;5866;49.094;11.900;2022-12-18T02:29:02;97465.81;;;-2.27;100.00
11621;BME280;5866;49.094;11.900;2022-12-18T02:31:36;97455.84;;;-1.92;100.00
11621;BME280;5866;49.094;11.900;2022-12-18T02:34:07;97464.31;;;-2.34;100.00
11621;BME280;5866;49.094;11.900;2022-12-18T02:36:39;97466.72;;;-2.53;100.00
11621;BME280;5866;49.094;11.900;2022-12-18T02:39:10;97471.97;;;-2.55;100.00
11621;BME280;5866;49.094;11.900;2022-12-18T02:41:40;97471.47;;;-2.66;100.00
11621;BME280;5866;49.094;11.900;2022-12-18T02:44:10;97470.28;;;-2.56;100.00
11621;BME280;5866;49.094;11.900;2022-12-18T02:46:40;97471.22;;;-2.33;100.00
11621;BME280;5866;49.094;11.900;2022-12-18T02:49:22;97470.56;;;-1.91;100.00
11621;BME280;5866;49.094;11.900;2022-12-18T02:51:55;97466.84;;;-1.62;100.00
11621;BME280;5866;49.094;11.900;2022-12-18T02:54:36;97465.78;;;-1.35;100.00
11621;BME280;5866;49.094;11.900;2022-12-18T02:57:13;97465.16;;;-1.63;100.00
11621;BME280;5866;49.094;11.900;2022-12-18T02:59:49;97460.53;;;-2.01;100.00
11621;BME280;5866;49.094;11.900;2022-12-18T03:02:31;97453.31;;;-2.16;100.00
11621;BME280;5866;49.094;11.900;2022-12-18T03:05:06;97471.16;;;-2.32;100.00
11621;BME280;5866;49.094;11.900;2022-12-18T03:07:38;97470.16;;;-2.03;100.00
11621;BME280;5866;49.094;11.900;2022-12-18T03:10:09;97467.09;;;-1.91;100.00
11621;BME280;5866;49.094;11.900;2022-12-18T03:12:43;97465.34;;;-2.14;100.00
11621;BME280;5866;49.094;11.900;2022-12-18T03:15:16;97463.56;;;-2.13;100.00
11621;BME280;5866;49.094;11.900;2022-12-18T03:17:49;97457.16;;;-1.80;100.00
11621;BME280;5866;49.094;11.900;2022-12-18T03:20:20;97464.94;;;-2.03;100.00
11621;BME280;5866;49.094;11.900;2022-12-18T03:22:51;97464.72;;;-1.74;100.00
11621;BME280;5866;49.094;11.900;2022-12-18T03:25:22;97462.19;;;-1.54;100.00
11621;BME280;5866;49.094;11.900;2022-12-18T03:27:55;97459.47;;;-1.96;100.00
11621;BME280;5866;49.094;11.900;2022-12-18T03:30:25;97453.06;;;-1.64;100.00
11621;BME280;5866;49.094;11.900;2022-12-18T03:32:58;97448.34;;;-1.99;100.00
11621;BME280;5866;49.094;11.900;2022-12-18T03:35:31;97457.75;;;-2.45;100.00
11621;BME280;5866;49.094;11.900;2022-12-18T03:38:00;97453.84;;;-2.56;100.00
11621;BME280;5866;49.094;11.900;2022-12-18T03:40:35;97466.91;;;-2.34;100.00
11621;BME280;5866;49.094;11.900;2022-12-18T03:43:11;97454.56;;;-2.28;100.00
11621;BME280;5866;49.094;11.900;2022-12-18T03:45:49;97457.75;;;-2.45;100.00
11621;BME280;5866;49.094;11.900;2022-12-18T03:48:23;97452.22;;;-2.85;100.00
11621;BME280;5866;49.094;11.900;2022-12-18T03:50:56;97459.66;;;-3.27;100.00
11621;BME280;5866;49.094;11.900;2022-12-18T03:53:32;97459.13;;;-3.10;100.00
11621;BME280;5866;49.094;11.900;2022-12-18T03:56:04;97461.50;;;-2.78;100.00
11621;BME280;5866;49.094;11.900;2022-12-18T03:58:35;97473.78;;;-2.57;100.00
11621;BME280;5866;49.094;11.900;2022-12-18T04:01:08;97477.31;;;-2.59;100.00
11621;BME280;5866;49.094;11.900;2022-12-18T04:03:37;97483.06;;;-2.50;100.00
11621;BME280;5866;49.094;11.900;2022-12-18T04:06:07;97482.78;;;-2.67;100.00
11621;BME280;5866;49.094;11.900;2022-12-18T04:08:35;97485.28;;;-2.90;100.00
11621;BME280;5866;49.094;11.900;2022-12-18T04:11:03;97487.28;;;-2.98;100.00
11621;BME280;5866;49.094;11.900;2022-12-18T04:13:35;97485.59;;;-2.99;100.00
11621;BME280;5866;49.094;11.900;2022-12-18T04:16:04;97487.09;;;-2.92;100.00
11621;BME280;5866;49.094;11.900;2022-12-18T04:18:32;97486.41;;;-2.72;100.00
11621;BME280;5866;49.094;11.900;2022-12-18T04:21:00;97493.97;;;-2.91;100.00
11621;BME280;5866;49.094;11.900;2022-12-18T04:23:27;97488.91;;;-2.69;100.00
11621;BME280;5866;49.094;11.900;2022-12-18T04:25:55;97492.69;;;-3.04;100.00
11621;BME280;5866;49.094;11.900;2022-12-18T04:28:23;97497.16;;;-3.09;100.00
11621;BME280;5866;49.094;11.900;2022-12-18T04:30:51;97498.94;;;-2.59;100.00
11621;BME280;5866;49.094;11.900;2022-12-18T04:33:19;97497.09;;;-3.07;100.00
11621;BME280;5866;49.094;11.900;2022-12-18T04:35:47;97503.09;;;-3.05;100.00
11621;BME280;5866;49.094;11.900;2022-12-18T04:38:14;97504.06;;;-2.82;100.00
11621;BME280;5866;49.094;11.900;2022-12-18T04:40:42;97501.16;;;-2.73;100.00
11621;BME280;5866;49.094;11.900;2022-12-18T04:43:10;97497.72;;;-2.73;100.00
11621;BME280;5866;49.094;11.900;2022-12-18T04:45:38;97503.16;;;-3.07;100.00
11621;BME280;5866;49.094;11.900;2022-12-18T04:48:07;97503.22;;;-3.10;100.00
11621;BME280;5866;49.094;11.900;2022-12-18T04:50:35;97508.47;;;-2.58;100.00
11621;BME280;5866;49.094;11.900;2022-12-18T04:53:03;97500.59;;;-2.07;100.00
11621;BME280;5866;49.094;11.900;2022-12-18T04:55:31;97498.59;;;-2.48;100.00
11621;BME280;5866;49.094;11.900;2022-12-18T04:57:58;97503.16;;;-3.07;100.00
11621;BME280;5866;49.094;11.900;2022-12-18T05:00:26;97504.63;;;-3.26;100.00
11621;BME280;5866;49.094;11.900;2022-12-18T05:02:54;97508.41;;;-3.08;100.00
11621;BME280;5866;49.094;11.900;2022-12-18T05:05:23;97515.03;;;-3.00;100.00
11621;BME280;5866;49.094;11.900;2022-12-18T05:07:50;97515.91;;;-2.73;100.00
11621;BME280;5866;49.094;11.900;2022-12-18T05:10:18;97513.44;;;-2.78;100.00
11621;BME280;5866;49.094;11.900;2022-12-18T05:12:45;97517.56;;;-2.21;100.00
11621;BME280;5866;49.094;11.900;2022-12-18T05:15:30;97509.81;;;-1.98;100.00
11621;BME280;5866;49.094;11.900;2022-12-18T05:17:59;97518.00;;;-2.09;100.00
11621;BME280;5866;49.094;11.900;2022-12-18T05:20:28;97498.63;;;-1.77;100.00
11621;BME280;5866;49.094;11.900;2022-12-18T05:22:56;97514.38;;;-2.05;100.00
11621;BME280;5866;49.094;11.900;2022-12-18T05:25:24;97518.34;;;-1.72;100.00
11621;BME280;5866;49.094;11.900;2022-12-18T05:27:52;97519.53;;;-2.03;100.00
11621;BME280;5866;49.094;11.900;2022-12-18T05:30:19;97522.28;;;-2.32;100.00
11621;BME280;5866;49.094;11.900;2022-12-18T05:32:47;97525.59;;;-2.27;100.00
11621;BME280;5866;49.094;11.900;2022-12-18T05:35:14;97516.50;;;-2.41;100.00
11621;BME280;5866;49.094;11.900;2022-12-18T05:37:43;97523.69;;;-2.22;100.00
11621;BME280;5866;49.094;11.900;2022-12-18T05:40:11;97537.59;;;-2.76;100.00
11621;BME280;5866;49.094;11.900;2022-12-18T05:42:39;97535.41;;;-2.62;100.00
11621;BME280;5866;49.094;11.900;2022-12-18T05:45:07;97533.66;;;-2.61;100.00
11621;BME280;5866;49.094;11.900;2022-12-18T05:47:35;97531.41;;;-2.98;100.00
11621;BME280;5866;49.094;11.900;2022-12-18T05:50:04;97535.88;;;-3.03;100.00
11621;BME280;5866;49.094;11.900;2022-12-18T05:52:33;97533.91;;;-3.50;100.00
11621;BME280;5866;49.094;11.900;2022-12-18T05:55:02;97542.75;;;-3.57;100.00
11621;BME280;5866;49.094;11.900;2022-12-18T05:57:30;97548.16;;;-3.36;100.00
11621;BME280;5866;49.094;11.900;2022-12-18T05:59:58;97547.19;;;-3.32;100.00
11621;BME280;5866;49.094;11.900;2022-12-18T06:02:25;97551.78;;;-3.13;100.00
11621;BME280;5866;49.094;11.900;2022-12-18T06:04:53;97552.13;;;-2.96;100.00
11621;BME280;5866;49.094;11.900;2022-12-18T06:07:20;97547.59;;;-3.17;100.00
11621;BME280;5866;49.094;11.900;2022-12-18T06:09:48;97552.59;;;-3.11;100.00
11621;BME280;5866;49.094;11.900;2022-12-18T06:12:17;97552.38;;;-3.04;100.00
11621;BME280;5866;49.094;11.900;2022-12-18T06:14:44;97554.97;;;-2.78;100.00
11621;BME280;5866;49.094;11.900;2022-12-18T06:17:12;97546.66;;;-2.87;100.00
11621;BME280;5866;49.094;11.900;2022-12-18T06:19:40;97547.91;;;-2.73;100.00
11621;BME280;5866;49.094;11.900;2022-12-18T06:22:07;97544.72;;;-2.81;100.00
11621;BME280;5866;49.094;11.900;2022-12-18T06:24:35;97542.81;;;-2.50;100.00
11621;BME280;5866;49.094;11.900;2022-12-18T06:27:02;97553.00;;;-2.97;100.00
11621;BME280;5866;49.094;11.900;2022-12-18T06:29:31;97554.56;;;-2.92;100.00
11621;BME280;5866;49.094;11.900;2022-12-18T06:31:59;97563.28;;;-3.20;100.00
11621;BME280;5866;49.094;11.900;2022-12-18T06:34:26;97559.06;;;-3.54;100.00
11621;BME280;5866;49.094;11.900;2022-12-18T06:36:54;97560.44;;;-3.13;100.00
11621;BME280;5866;49.094;11.900;2022-12-18T06:39:22;97563.63;;;-3.05;100.00
11621;BME280;5866;49.094;11.900;2022-12-18T06:41:49;97561.44;;;-2.91;100.00
11621;BME280;5866;49.094;11.900;2022-12-18T06:44:17;97562.25;;;-2.89;100.00
11621;BME280;5866;49.094;11.900;2022-12-18T06:46:46;97567.75;;;-2.70;100.00
11621;BME280;5866;49.094;11.900;2022-12-18T06:49:13;97564.84;;;-2.89;100.00
11621;BME280;5866;49.094;11.900;2022-12-18T06:51:42;97582.84;;;-2.83;100.00
11621;BME280;5866;49.094;11.900;2022-12-18T06:54:10;97589.25;;;-2.67;100.00
11621;BME280;5866;49.094;11.900;2022-12-18T06:56:38;97587.84;;;-2.51;100.00
11621;BME280;5866;49.094;11.900;2022-12-18T06:59:06;97592.06;;;-2.73;100.00
11621;BME280;5866;49.094;11.900;2022-12-18T07:01:33;97591.25;;;-2.49;100.00
11621;BME280;5866;49.094;11.900;2022-12-18T07:04:02;97593.91;;;-3.05;100.00
11621;BME280;5866;49.094;11.900;2022-12-18T07:06:30;97594.41;;;-2.93;100.00
11621;BME280;5866;49.094;11.900;2022-12-18T07:08:57;97586.78;;;-3.27;100.00
11621;BME280;5866;49.094;11.900;2022-12-18T07:11:25;97593.97;;;-3.07;100.00
11621;BME280;5866;49.094;11.900;2022-12-18T07:13:53;97607.56;;;-2.99;100.00
11621;BME280;5866;49.094;11.900;2022-12-18T07:16:21;97599.59;;;-2.93;100.00
11621;BME280;5866;49.094;11.900;2022-12-18T07:18:51;97599.94;;;-3.33;100.00
11621;BME280;5866;49.094;11.900;2022-12-18T07:21:21;97597.75;;;-3.17;100.00
11621;BME280;5866;49.094;11.900;2022-12-18T07:23:49;97594.88;;;-3.37;100.00
11621;BME280;5866;49.094;11.900;2022-12-18T07:26:18;97583.91;;;-3.17;100.00
11621;BME280;5866;49.094;11.900;2022-12-18T07:28:47;97583.69;;;-3.39;100.00
11621;BME280;5866;49.094;11.900;2022-12-18T07:31:16;97582.47;;;-3.86;100.00
11621;BME280;5866;49.094;11.900;2022-12-18T07:33:45;97582.97;;;-3.73;100.00
11621;BME280;5866;49.094;11.900;2022-12-18T07:36:13;97572.59;;;-3.15;100.00
11621;BME280;5866;49.094;11.900;2022-12-18T07:38:42;97579.16;;;-3.03;100.00
11621;BME280;5866;49.094;11.900;2022-12-18T07:41:11;97577.88;;;-2.90;100.00
11621;BME280;5866;49.094;11.900;2022-12-18T07:43:40;97587.84;;;-2.24;100.00
11621;BME280;5866;49.094;11.900;2022-12-18T07:46:09;97585.56;;;-1.84;100.00
11621;BME280;5866;49.094;11.900;2022-12-18T07:48:38;97585.59;;;-1.61;100.00
11621;BME280;5866;49.094;11.900;2022-12-18T07:51:06;97585.88;;;-1.69;100.00
11621;BME280;5866;49.094;11.900;2022-12-18T07:53:35;97600.84;;;-1.75;100.00
11621;BME280;5866;49.094;11.900;2022-12-18T07:56:08;97600.00;;;-1.76;100.00
11621;BME280;5866;49.094;11.900;2022-12-18T07:58:54;97600.19;;;-1.57;100.00
11621;BME280;5866;49.094;11.900;2022-12-18T08:01:22;97593.84;;;-1.73;100.00
11621;BME280;5866;49.094;11.900;2022-12-18T08:03:50;97597.66;;;-1.83;100.00
11621;BME280;5866;49.094;11.900;2022-12-18T08:06:18;97601.19;;;-1.61;100.00
11621;BME280;5866;49.094;11.900;2022-12-18T08:08:50;97602.19;;;-1.64;100.00
11621;BME280;5866;49.094;11.900;2022-12-18T08:11:19;97606.78;;;-1.47;100.00
11621;BME280;5866;49.094;11.900;2022-12-18T08:13:47;97606.47;;;-1.87;100.00
11621;BME280;5866;49.094;11.900;2022-12-18T08:16:15;97618.19;;;-2.00;100.00
11621;BME280;5866;49.094;11.900;2022-12-18T08:18:43;97617.53;;;-1.81;100.00
11621;BME280;5866;49.094;11.900;2022-12-18T08:21:12;97616.34;;;-1.72;100.00
11621;BME280;5866;49.094;11.900;2022-12-18T08:23:41;97632.38;;;-1.84;100.00
11621;BME280;5866;49.094;11.900;2022-12-18T08:26:10;97641.59;;;-2.00;100.00
11621;BME280;5866;49.094;11.900;2022-12-18T08:28:39;97638.31;;;-2.05;100.00
11621;BME280;5866;49.094;11.900;2022-12-18T08:31:07;97626.25;;;-1.58;100.00
11621;BME280;5866;49.094;11.900;2022-12-18T08:33:36;97636.63;;;-1.82;100.00
11621;BME280;5866;49.094;11.900;2022-12-18T08:36:08;97632.16;;;-1.53;100.00
11621;BME280;5866;49.094;11.900;2022-12-18T08:38:36;97635.84;;;-1.36;100.00
11621;BME280;5866;49.094;11.900;2022-12-18T08:41:06;97638.09;;;-1.50;100.00
11621;BME280;5866;49.094;11.900;2022-12-18T08:43:33;97640.88;;;-2.04;100.00
11621;BME280;5866;49.094;11.900;2022-12-18T08:46:21;97631.50;;;-2.62;100.00
11621;BME280;5866;49.094;11.900;2022-12-18T08:48:51;97639.56;;;-2.43;100.00
11621;BME280;5866;49.094;11.900;2022-12-18T08:51:19;97639.34;;;-2.11;100.00
11621;BME280;5866;49.094;11.900;2022-12-18T08:53:47;97646.00;;;-2.02;100.00
11621;BME280;5866;49.094;11.900;2022-12-18T08:56:14;97643.16;;;-2.21;100.00
11621;BME280;5866;49.094;11.900;2022-12-18T08:58:42;97645.91;;;-2.25;100.00
11621;BME280;5866;49.094;11.900;2022-12-18T09:01:11;97646.31;;;-2.65;100.00
11621;BME280;5866;49.094;11.900;2022-12-18T09:03:41;97645.84;;;-2.78;100.00
11621;BME280;5866;49.094;11.900;2022-12-18T09:06:13;97641.78;;;-2.59;100.00
11621;BME280;5866;49.094;11.900;2022-12-18T09:08:40;97638.59;;;-2.41;100.00
11621;BME280;5866;49.094;11.900;2022-12-18T09:11:12;97639.19;;;-2.32;100.00
11621;BME280;5866;49.094;11.900;2022-12-18T09:13:40;97640.06;;;-1.81;100.00
11621;BME280;5866;49.094;11.900;2022-12-18T09:16:08;97649.00;;;-1.64;100.00
11621;BME280;5866;49.094;11.900;2022-12-18T09:18:36;97647.72;;;-1.52;100.00
11621;BME280;5866;49.094;11.900;2022-12-18T09:21:10;97650.63;;;-1.61;100.00
11621;BME280;5866;49.094;11.900;2022-12-18T09:23:38;97647.81;;;-2.30;100.00
11621;BME280;5866;49.094;11.900;2022-12-18T09:26:06;97649.34;;;-2.51;100.00
11621;BME280;5866;49.094;11.900;2022-12-18T09:28:34;97647.94;;;-2.61;100.00
11621;BME280;5866;49.094;11.900;2022-12-18T09:31:05;97641.91;;;-2.09;100.00
11621;BME280;5866;49.094;11.900;2022-12-18T09:33:34;97645.50;;;-2.13;100.00
11621;BME280;5866;49.094;11.900;2022-12-18T09:36:03;97642.97;;;-1.90;100.00
11621;BME280;5866;49.094;11.900;2022-12-18T09:38:33;97635.16;;;-1.89;100.00
11621;BME280;5866;49.094;11.900;2022-12-18T09:41:05;97626.81;;;-1.49;100.00
11621;BME280;5866;49.094;11.900;2022-12-18T09:43:36;97626.84;;;-1.75;100.00
11621;BME280;5866;49.094;11.900;2022-12-18T09:46:10;97628.56;;;-1.74;100.00
11621;BME280;5866;49.094;11.900;2022-12-18T09:48:45;97631.94;;;-1.97;100.00
11621;BME280;5866;49.094;11.900;2022-12-18T09:51:18;97623.66;;;-1.58;100.00
11621;BME280;5866;49.094;11.900;2022-12-18T09:53:53;97625.41;;;-1.59;100.00
11621;BME280;5866;49.094;11.900;2022-12-18T09:56:33;97626.66;;;-1.46;100.00
11621;BME280;5866;49.094;11.900;2022-12-18T09:59:03;97629.94;;;-1.64;100.00
11621;BME280;5866;49.094;11.900;2022-12-18T10:01:32;97617.72;;;-1.62;100.00
11621;BME280;5866;49.094;11.900;2022-12-18T10:04:09;97625.34;;;-1.82;100.00
11621;BME280;5866;49.094;11.900;2022-12-18T10:06:41;97613.44;;;-1.40;100.00
11621;BME280;5866;49.094;11.900;2022-12-18T10:09:18;97607.66;;;-1.48;100.00
11621;BME280;5866;49.094;11.900;2022-12-18T10:11:55;97613.41;;;-1.15;100.00
11621;BME280;5866;49.094;11.900;2022-12-18T10:14:30;97618.63;;;-2.12;100.00
11621;BME280;5866;49.094;11.900;2022-12-18T10:17:07;97611.78;;;-1.90;100.00
11621;BME280;5866;49.094;11.900;2022-12-18T10:19:45;97618.03;;;-2.20;100.00
11621;BME280;5866;49.094;11.900;2022-12-18T10:22:24;97620.47;;;-2.16;100.00
11621;BME280;5866;49.094;11.900;2022-12-18T10:24:59;97615.59;;;-2.25;100.00
11621;BME280;5866;49.094;11.900;2022-12-18T10:27:30;97612.94;;;-2.23;100.00
11621;BME280;5866;49.094;11.900;2022-12-18T10:30:01;97606.94;;;-2.52;100.00
11621;BME280;5866;49.094;11.900;2022-12-18T10:32:30;97608.06;;;-2.08;100.00
11621;BME280;5866;49.094;11.900;2022-12-18T10:34:58;97600.22;;;-2.06;100.00
11621;BME280;5866;49.094;11.900;2022-12-18T10:37:29;97601.94;;;-1.82;100.00
11621;BME280;5866;49.094;11.900;2022-12-18T10:40:10;97600.63;;;-1.69;100.00
11621;BME280;5866;49.094;11.900;2022-12-18T10:43:03;97591.94;;;-2.17;100.00
11621;BME280;5866;49.094;11.900;2022-12-18T10:45:31;97588.44;;;-1.92;100.00
11621;BME280;5866;49.094;11.900;2022-12-18T10:47:58;97580.56;;;-1.90;100.00
11621;BME280;5866;49.094;11.900;2022-12-18T10:50:29;97570.19;;;-1.66;100.00
11621;BME280;5866;49.094;11.900;2022-12-18T10:53:19;97588.22;;;-2.10;100.00
11621;BME280;5866;49.094;11.900;2022-12-18T10:55:52;97586.13;;;-1.99;100.00
11621;BME280;5866;49.094;11.900;2022-12-18T10:58:24;97584.94;;;-1.91;100.00
11621;BME280;5866;49.094;11.900;2022-12-18T11:01:08;97592.69;;;-1.89;100.00
11621;BME280;5866;49.094;11.900;2022-12-18T11:03:37;97583.44;;;-1.73;100.00
11621;BME280;5866;49.094;11.900;2022-12-18T11:06:07;97587.38;;;-2.11;100.00
11621;BME280;5866;49.094;11.900;2022-12-18T11:08:36;97590.56;;;-1.78;100.00
11621;BME280;5866;49.094;11.900;2022-12-18T11:11:19;97587.63;;;-1.46;100.00
11621;BME280;5866;49.094;11.900;2022-12-18T11:13:58;97585.56;;;-1.13;100.00
11621;BME280;5866;49.094;11.900;2022-12-18T11:16:29;97595.34;;;-0.53;100.00
11621;BME280;5866;49.094;11.900;2022-12-18T11:19:13;97596.47;;;-0.60;100.00
11621;BME280;5866;49.094;11.900;2022-12-18T11:21:42;97594.50;;;-0.75;100.00
11621;BME280;5866;49.094;11.900;2022-12-18T11:24:20;97598.44;;;-0.65;100.00
11621;BME280;5866;49.094;11.900;2022-12-18T11:26:50;97596.16;;;-0.31;100.00
11621;BME280;5866;49.094;11.900;2022-12-18T11:29:30;97596.41;;;-0.37;100.00
11621;BME280;5866;49.094;11.900;2022-12-18T11:32:33;97585.94;;;-1.01;100.00
11621;BME280;5866;49.094;11.900;2022-12-18T11:35:10;97588.63;;;-0.59;100.00
11621;BME280;5866;49.094;11.900;2022-12-18T11:37:41;97598.44;;;-0.65;100.00
11621;BME280;5866;49.094;11.900;2022-12-18T11:40:14;97594.75;;;-0.18;100.00
11621;BME280;5866;49.094;11.900;2022-12-18T11:42:50;97591.59;;;-0.26;100.00
11621;BME280;5866;49.094;11.900;2022-12-18T11:45:28;97593.81;;;-0.81;100.00
11621;BME280;5866;49.094;11.900;2022-12-18T11:48:02;97590.69;;;-1.12;100.00
11621;BME280;5866;49.094;11.900;2022-12-18T11:50:41;97584.25;;;-1.48;100.00
11621;BME280;5866;49.094;11.900;2022-12-18T11:53:11;97591.50;;;-1.56;100.00
11621;BME280;5866;49.094;11.900;2022-12-18T11:55:42;97590.63;;;-1.10;100.00
11621;BME280;5866;49.094;11.900;2022-12-18T11:58:22;97597.16;;;-0.99;100.00
11621;BME280;5866;49.094;11.900;2022-12-18T12:01:03;97601.72;;;-1.05;100.00
11621;BME280;5866;49.094;11.900;2022-12-18T12:04:03;97596.75;;;-1.82;100.00
11621;BME280;5866;49.094;11.900;2022-12-18T12:06:41;97583.97;;;-1.64;100.00
11621;BME280;5866;49.094;11.900;2022-12-18T12:09:20;97568.97;;;-1.57;100.00
11621;BME280;5866;49.094;11.900;2022-12-18T12:11:58;97564.72;;;-1.13;100.00
11621;BME280;5866;49.094;11.900;2022-12-18T12:14:51;97561.63;;;-0.80;100.00
11621;BME280;5866;49.094;11.900;2022-12-18T12:17:28;97549.53;;;-0.81;100.00
11621;BME280;5866;49.094;11.900;2022-12-18T12:20:02;97555.53;;;-0.78;100.00
11621;BME280;5866;49.094;11.900;2022-12-18T12:22:38;97548.28;;;-1.37;100.00
11621;BME280;5866;49.094;11.900;2022-12-18T12:25:21;97546.16;;;-1.49;100.00
11621;BME280;5866;49.094;11.900;2022-12-18T12:28:06;97540.75;;;-1.00;100.00
11621;BME280;5866;49.094;11.900;2022-12-18T12:30:47;97538.09;;;-1.43;100.00
11621;BME280;5866;49.094;11.900;2022-12-18T12:33:29;97550.25;;;-1.43;100.00
11621;BME280;5866;49.094;11.900;2022-12-18T12:36:07;97547.81;;;-1.48;100.00
11621;BME280;5866;49.094;11.900;2022-12-18T12:38:41;97542.91;;;-1.79;100.00
11621;BME280;5866;49.094;11.900;2022-12-18T12:41:18;97548.22;;;-2.06;100.00
11621;BME280;5866;49.094;11.900;2022-12-18T12:44:08;97541.00;;;-1.06;100.00
11621;BME280;5866;49.094;11.900;2022-12-18T12:46:42;97544.00;;;-0.51;100.00
11621;BME280;5866;49.094;11.900;2022-12-18T12:49:15;97540.38;;;-0.69;100.00
11621;BME280;5866;49.094;11.900;2022-12-18T12:51:47;97549.34;;;-0.76;100.00
11621;BME280;5866;49.094;11.900;2022-12-18T12:54:19;97540.00;;;-0.60;100.00
11621;BME280;5866;49.094;11.900;2022-12-18T12:56:54;97538.97;;;-0.77;100.00
11621;BME280;5866;49.094;11.900;2022-12-18T12:59:29;97538.00;;;-0.53;100.00
11621;BME280;5866;49.094;11.900;2022-12-18T13:02:06;97533.59;;;-0.11;100.00
11621;BME280;5866;49.094;11.900;2022-12-18T13:04:45;97523.94;;;-0.29;100.00
11621;BME280;5866;49.094;11.900;2022-12-18T13:07:19;97536.34;;;0.06;100.00
11621;BME280;5866;49.094;11.900;2022-12-18T13:10:12;97536.34;;;0.06;98.23
11621;BME280;5866;49.094;11.900;2022-12-18T13:12:52;97548.34;;;-0.52;99.91